This is the latest recevied weather packets stored in our database for station/object NK7E-1. If no packets are shown the sender has not sent any weather packets the latest 10 day(s).
| Time | Temp. | Humidity | Pressure | Rain* | Wind** | Luminosity | Snow |
|---|---|---|---|---|---|---|---|
| 1778093400 | 22.22° C | 32% | 1016.9 hPa | 0 mm | - | - | - |
| 1778092801 | 21.67° C | 32% | 1017.1 hPa | 0 mm | - | - | - |
| 1778092201 | 22.22° C | 31% | 1017.3 hPa | 0 mm | - | - | - |
| 1778091601 | 22.22° C | 31% | 1017.3 hPa | 0 mm | - | - | - |
| 1778091000 | 21.67° C | 31% | 1017.4 hPa | 0 mm | - | - | - |
| 1778090402 | 21.67° C | 32% | 1017.5 hPa | 0 mm | - | - | - |
| 1778089800 | 21.11° C | 33% | 1017.5 hPa | 0 mm | - | - | - |
| 1778089200 | 20.56° C | 35% | 1017.5 hPa | 0 mm | - | - | - |
| 1778088601 | 21.67° C | 35% | 1017.5 hPa | 0 mm | - | - | - |
| 1778088000 | 21.67° C | 36% | 1017.4 hPa | 0 mm | - | - | - |
| 1778087400 | 21.11° C | 36% | 1017.4 hPa | 0 mm | - | - | - |
| 1778086800 | 20° C | 40% | 1017.5 hPa | 0 mm | - | - | - |
| 1778086202 | 19.44° C | 41% | 1017.4 hPa | 0 mm | - | - | - |
| 1778085602 | 19.44° C | 43% | 1017.4 hPa | 0 mm | - | - | - |
| 1778085001 | 18.89° C | 44% | 1017.3 hPa | 0 mm | - | - | - |
| 1778084400 | 18.89° C | 46% | 1017.3 hPa | 0 mm | - | - | - |
| 1778083800 | 18.89° C | 46% | 1017.2 hPa | 0 mm | - | - | - |
| 1778083200 | 18.89° C | 47% | 1017.2 hPa | 0 mm | - | - | - |
| 1778082601 | 17.78° C | 49% | 1017.1 hPa | 0 mm | - | - | - |
| 1778082000 | 17.78° C | 50% | 1017.1 hPa | 0 mm | - | - | - |
| 1778081401 | 18.33° C | 51% | 1017.3 hPa | 0 mm | - | - | - |
| 1778080800 | 17.22° C | 54% | 1017.3 hPa | 0 mm | - | - | - |
| 1778080200 | 16.67° C | 56% | 1017.2 hPa | 0 mm | - | - | - |
| 1778079600 | 16.67° C | 57% | 1017.1 hPa | 0 mm | - | - | - |
| 1778079001 | 15.56° C | 59% | 1017.1 hPa | 0 mm | - | - | - |
* Rain latest hour (hover to see other rain measurements)
** Current wind speed in m/s (hover to see current wind gust speed)